New York, New York
Traffic Map
Current Weather Conditions
New York, New York
Few Clouds
Few Clouds
21°
Feels Like: 21°
Wind Chill: 21° Ceiling: Unl
Heat Index: 21° Visibility: 10mi
Dew Point: Wind: 7mph
Humidity: 43% Direction: 30° (NNE)
Pressure: 29.77in Gusts: 0mph
Raw Report DataKJRB 242115Z AUTO 03006KT 10SM FEW050 21/08 A2977 RMK AO1
Traffic Incident Summary
Active as of:
Severity:
Category:
InformationThere was an issue retrieving the traffic information for this location. Please try a different location or try again shortly.
Advertisements
Track Severe Weather on mobile